Time;durP1;ratioP1;P1;durP2;ratioP2;P2;SDS_P1;SDS_P2;PMS_P1;PMS_P2;Temp;Humidity;BMP_temperature;BMP_pressure;BME280_temperature;BME280_humidity;BME280_pressure;Samples;Min_cycle;Max_cycle;Signal;HPM_P1;HPM_P2
2022/02/25 00:00:56;;;;;;;28.87;26.27;;;2.10;99.90;;;;;;5017945;28;20464;-69
2022/02/25 00:03:23;;;;;;;26.30;24.37;;;2.00;99.90;;;;;;5042440;28;20500;-69
2022/02/25 00:05:50;;;;;;;27.20;24.97;;;2.00;99.90;;;;;;5036933;28;20598;-69
2022/02/25 00:08:17;;;;;;;27.30;25.40;;;2.00;99.90;;;;;;5039343;28;20533;-69
2022/02/25 00:10:44;;;;;;;25.60;23.90;;;2.00;99.90;;;;;;5035921;28;20552;-69
2022/02/25 00:13:11;;;;;;;25.80;24.00;;;2.10;99.90;;;;;;5033800;28;20456;-69
2022/02/25 00:15:40;;;;;;;24.33;22.30;;;2.10;99.90;;;;;;5035437;28;20465;-69
2022/02/25 00:18:07;;;;;;;24.57;22.60;;;2.10;99.90;;;;;;5044975;28;20587;-69
2022/02/25 00:20:34;;;;;;;23.73;21.50;;;2.10;99.90;;;;;;5041748;28;20487;-69
2022/02/25 00:23:01;;;;;;;22.60;20.60;;;2.20;99.90;;;;;;5039894;28;20466;-69
2022/02/25 00:25:28;;;;;;;22.63;20.80;;;2.20;99.90;;;;;;5037944;28;20475;-69
2022/02/25 00:27:55;;;;;;;22.10;20.17;;;2.20;99.90;;;;;;5034850;28;20475;-69
2022/02/25 00:30:22;;;;;;;19.73;18.53;;;2.20;99.90;;;;;;5042381;28;20473;-69
2022/02/25 00:32:51;;;;;;;20.93;19.33;;;2.20;99.90;;;;;;5035054;28;20467;-69
2022/02/25 00:35:18;;;;;;;19.37;17.73;;;2.20;99.90;;;;;;5037034;28;20467;-69
2022/02/25 00:37:45;;;;;;;19.40;18.30;;;2.20;99.90;;;;;;5040478;28;20487;-69
2022/02/25 00:40:13;;;;;;;18.13;17.03;;;2.30;99.90;;;;;;5039710;28;20544;-69
2022/02/25 00:42:40;;;;;;;17.30;16.10;;;2.30;99.90;;;;;;5040524;28;20464;-69
2022/02/25 00:45:08;;;;;;;20.27;18.63;;;2.30;99.90;;;;;;5034719;28;20840;-69
2022/02/25 00:47:35;;;;;;;19.80;18.20;;;2.30;99.90;;;;;;5032769;28;20479;-69
2022/02/25 00:50:04;;;;;;;17.17;16.27;;;2.30;99.90;;;;;;5039617;28;20817;-69
2022/02/25 00:52:31;;;;;;;17.73;16.43;;;2.20;99.90;;;;;;5035239;28;20526;-69
2022/02/25 00:54:58;;;;;;;17.87;16.63;;;2.20;99.90;;;;;;5039769;28;20467;-69
2022/02/25 00:57:24;;;;;;;17.87;16.40;;;2.20;99.90;;;;;;5034008;28;20487;-69
2022/02/25 00:59:51;;;;;;;19.37;17.70;;;2.20;99.90;;;;;;5038989;28;20475;-69
2022/02/25 01:02:18;;;;;;;17.70;16.20;;;2.10;99.90;;;;;;5034475;28;20496;-69
2022/02/25 01:04:46;;;;;;;23.83;17.00;;;2.20;99.90;;;;;;5039923;28;20463;-69
2022/02/25 01:07:14;;;;;;;17.50;16.20;;;2.20;99.90;;;;;;5035622;28;20582;-69
2022/02/25 01:09:41;;;;;;;17.50;16.20;;;2.20;99.90;;;;;;5037073;28;20491;-69
2022/02/25 01:12:10;;;;;;;18.23;16.93;;;2.20;99.90;;;;;;5041362;28;20463;-69
2022/02/25 01:14:37;;;;;;;15.70;14.73;;;2.20;99.90;;;;;;5034693;28;20467;-69
2022/02/25 01:17:04;;;;;;;19.30;17.30;;;2.20;99.90;;;;;;5045783;28;20495;-69
2022/02/25 01:19:31;;;;;;;16.93;15.57;;;2.20;99.90;;;;;;5041013;28;20531;-69
2022/02/25 01:21:58;;;;;;;16.37;15.37;;;2.20;99.90;;;;;;5035902;28;20491;-69
2022/02/25 01:24:26;;;;;;;15.37;14.47;;;2.20;99.90;;;;;;5037196;28;20480;-69
2022/02/25 01:26:53;;;;;;;16.97;15.40;;;2.30;99.90;;;;;;5041185;28;20468;-69
2022/02/25 01:29:19;;;;;;;16.80;15.47;;;2.30;99.90;;;;;;5040964;28;20580;-69
2022/02/25 01:31:46;;;;;;;18.90;17.47;;;2.30;99.90;;;;;;5037892;28;20460;-69
2022/02/25 01:34:13;;;;;;;20.70;16.10;;;2.30;99.90;;;;;;5049550;28;20538;-69
2022/02/25 01:36:40;;;;;;;16.00;14.70;;;2.30;99.90;;;;;;5040389;28;20484;-69
2022/02/25 01:39:07;;;;;;;17.57;16.03;;;2.30;99.90;;;;;;5040768;28;20464;-69
2022/02/25 01:41:35;;;;;;;16.93;15.53;;;2.40;99.90;;;;;;5043182;28;20784;-69
2022/02/25 01:44:14;;;;;;;17.20;15.00;;;2.30;99.90;;;;;;5036985;28;20474;-69
2022/02/25 01:46:44;;;;;;;17.13;15.67;;;2.30;99.90;;;;;;5040247;28;20474;-69
2022/02/25 01:49:12;;;;;;;16.90;15.57;;;2.30;99.90;;;;;;5045119;28;20830;-69
2022/02/25 01:51:39;;;;;;;17.07;15.30;;;2.30;99.90;;;;;;5039151;28;20488;-69
2022/02/25 01:54:06;;;;;;;16.57;15.37;;;2.40;99.90;;;;;;5037595;28;20457;-69
2022/02/25 01:56:33;;;;;;;16.30;15.20;;;2.40;99.90;;;;;;5040977;28;20487;-68
2022/02/25 01:59:01;;;;;;;16.43;15.00;;;2.40;99.90;;;;;;5035101;28;20464;-69
2022/02/25 02:01:28;;;;;;;17.33;15.80;;;2.50;99.90;;;;;;5037427;28;20465;-69
2022/02/25 02:03:56;;;;;;;15.57;14.37;;;2.50;99.90;;;;;;5044073;28;20456;-69
2022/02/25 02:06:22;;;;;;;16.00;14.53;;;2.50;99.90;;;;;;5049890;28;20539;-69
2022/02/25 02:08:50;;;;;;;15.07;14.07;;;2.50;99.90;;;;;;5046686;28;20476;-69
2022/02/25 02:11:28;;;;;;;15.70;14.33;;;2.50;99.90;;;;;;5040771;28;20467;-69
2022/02/25 02:13:55;;;;;;;22.30;16.23;;;2.40;99.90;;;;;;5035546;28;20466;-69
2022/02/25 02:16:23;;;;;;;15.93;14.93;;;2.40;99.90;;;;;;5041951;28;20961;-69
2022/02/25 02:18:50;;;;;;;16.10;14.90;;;2.30;99.90;;;;;;5044092;28;20464;-69
2022/02/25 02:21:19;;;;;;;18.27;15.93;;;2.30;99.90;;;;;;5040878;28;20673;-69
2022/02/25 02:23:47;;;;;;;15.53;14.50;;;2.30;99.90;;;;;;5039543;28;20471;-69
2022/02/25 02:26:14;;;;;;;15.90;15.00;;;2.20;99.90;;;;;;5041994;28;20970;-69
2022/02/25 02:28:41;;;;;;;16.20;15.20;;;2.20;99.90;;;;;;5043441;28;20459;-69
2022/02/25 02:31:08;;;;;;;18.17;15.47;;;2.10;99.90;;;;;;5036732;28;20460;-69
2022/02/25 02:33:36;;;;;;;16.20;14.90;;;2.20;99.90;;;;;;5033293;28;20468;-69
2022/02/25 02:36:04;;;;;;;15.50;14.47;;;2.20;99.90;;;;;;5033936;28;20460;-69
2022/02/25 02:38:31;;;;;;;19.80;14.77;;;2.20;99.90;;;;;;5041380;28;20990;-69
2022/02/25 02:41:00;;;;;;;15.93;14.30;;;2.20;99.90;;;;;;5046090;28;20631;-69
2022/02/25 02:43:27;;;;;;;15.57;14.20;;;2.10;99.90;;;;;;5044037;28;20513;-69
2022/02/25 02:45:54;;;;;;;15.13;14.13;;;2.10;99.90;;;;;;5043032;28;20700;-69
2022/02/25 02:48:22;;;;;;;15.30;14.30;;;2.10;99.90;;;;;;5034338;28;20495;-69
2022/02/25 02:50:49;;;;;;;15.97;14.80;;;2.10;99.90;;;;;;5039197;28;20832;-69
2022/02/25 02:53:16;;;;;;;17.63;14.77;;;2.20;99.90;;;;;;5041645;28;20457;-69
2022/02/25 02:55:43;;;;;;;15.50;14.10;;;2.20;99.90;;;;;;5037335;28;20463;-69
2022/02/25 02:58:13;;;;;;;16.33;14.70;;;2.30;99.90;;;;;;5040894;28;20491;-69
2022/02/25 03:00:42;;;;;;;15.97;14.73;;;2.30;99.90;;;;;;5040858;28;20459;-70
2022/02/25 03:03:10;;;;;;;15.50;14.40;;;2.30;99.90;;;;;;5039600;28;20492;-70
2022/02/25 03:05:38;;;;;;;16.20;14.13;;;2.20;99.90;;;;;;5036765;28;20562;-70
2022/02/25 03:08:05;;;;;;;19.20;14.60;;;2.20;99.90;;;;;;5038218;28;20475;-69
2022/02/25 03:10:32;;;;;;;15.77;14.80;;;2.20;99.90;;;;;;5043455;28;20847;-70
2022/02/25 03:13:00;;;;;;;14.90;14.10;;;2.20;99.90;;;;;;5037385;28;20478;-70
2022/02/25 03:15:28;;;;;;;16.07;14.57;;;2.20;99.90;;;;;;5036509;28;20488;-70
2022/02/25 03:17:55;;;;;;;15.07;14.20;;;2.30;99.90;;;;;;5039049;28;20503;-70
2022/02/25 03:20:23;;;;;;;15.27;14.37;;;2.30;99.90;;;;;;5032423;28;20865;-70
2022/02/25 03:22:50;;;;;;;15.90;14.53;;;2.30;99.90;;;;;;5041659;28;20459;-70
2022/02/25 03:25:18;;;;;;;15.93;14.60;;;2.30;99.90;;;;;;5034749;28;20824;-70
2022/02/25 03:27:46;;;;;;;16.30;14.83;;;2.30;99.90;;;;;;5040141;28;20507;-70
2022/02/25 03:30:13;;;;;;;15.17;14.37;;;2.30;99.90;;;;;;5036962;28;20468;-70
2022/02/25 03:32:43;;;;;;;17.60;15.10;;;2.30;99.90;;;;;;5039912;28;20479;-69
2022/02/25 03:35:11;;;;;;;15.93;14.57;;;2.30;99.90;;;;;;5038661;28;20939;-70
2022/02/25 03:37:38;;;;;;;16.77;15.60;;;2.20;99.90;;;;;;5033250;28;20487;-70
2022/02/25 03:40:07;;;;;;;16.27;15.10;;;2.20;99.90;;;;;;5040859;28;20472;-70
2022/02/25 03:42:34;;;;;;;16.90;15.57;;;2.20;99.90;;;;;;5040116;28;20557;-70
2022/02/25 03:45:04;;;;;;;15.70;14.60;;;2.20;99.90;;;;;;5037398;28;20470;-70
2022/02/25 03:47:32;;;;;;;15.70;14.57;;;2.10;99.90;;;;;;5038454;28;20465;-69
2022/02/25 03:50:00;;;;;;;17.17;15.33;;;2.10;99.90;;;;;;5038969;28;20978;-70
2022/02/25 03:52:27;;;;;;;15.80;13.60;;;2.10;99.90;;;;;;5032498;28;20463;-70
2022/02/25 03:54:55;;;;;;;15.57;14.37;;;2.10;99.90;;;;;;5044903;28;20460;-69
2022/02/25 03:57:22;;;;;;;15.47;14.07;;;2.10;99.90;;;;;;5042108;28;20624;-70
2022/02/25 03:59:49;;;;;;;16.03;14.60;;;2.10;99.90;;;;;;5035543;28;20544;-70
2022/02/25 04:02:15;;;;;;;15.67;14.47;;;2.10;99.90;;;;;;5040874;28;20475;-69
2022/02/25 04:04:42;;;;;;;17.33;14.77;;;2.00;99.90;;;;;;5039258;28;20481;-70
2022/02/25 04:07:10;;;;;;;16.53;15.10;;;2.00;99.90;;;;;;5037078;28;21044;-70
2022/02/25 04:09:37;;;;;;;16.43;15.10;;;2.00;99.90;;;;;;5037742;28;20625;-70
2022/02/25 04:12:05;;;;;;;16.33;15.13;;;2.00;99.90;;;;;;5039780;28;20471;-70
2022/02/25 04:14:31;;;;;;;16.30;14.80;;;2.10;99.90;;;;;;5038148;28;20562;-70
2022/02/25 04:16:59;;;;;;;16.30;14.90;;;2.00;99.90;;;;;;5042709;28;20475;-70
2022/02/25 04:19:26;;;;;;;17.93;14.50;;;2.00;99.90;;;;;;5040248;28;20498;-70
2022/02/25 04:21:53;;;;;;;15.70;14.13;;;2.00;99.90;;;;;;5035229;28;20541;-69
2022/02/25 04:24:21;;;;;;;15.07;14.30;;;2.20;99.90;;;;;;5040715;28;21143;-70
2022/02/25 04:26:48;;;;;;;16.87;15.27;;;2.20;99.90;;;;;;5043255;28;20520;-70
2022/02/25 04:29:16;;;;;;;15.80;14.60;;;2.20;99.90;;;;;;5037531;28;20517;-70
2022/02/25 04:31:43;;;;;;;15.77;14.33;;;2.20;99.90;;;;;;5042034;28;20495;-70
2022/02/25 04:34:11;;;;;;;16.40;14.87;;;2.20;99.90;;;;;;5032103;28;20548;-70
2022/02/25 04:36:38;;;;;;;16.20;14.97;;;2.30;99.90;;;;;;5036493;28;20468;-70
2022/02/25 04:39:07;;;;;;;16.37;15.07;;;2.30;99.90;;;;;;5042948;28;21027;-70
2022/02/25 04:41:35;;;;;;;20.43;14.33;;;2.30;99.90;;;;;;5041141;28;20463;-70
2022/02/25 04:44:02;;;;;;;16.73;14.43;;;2.30;99.90;;;;;;5036695;28;20459;-69
2022/02/25 04:46:30;;;;;;;17.93;14.80;;;2.30;99.90;;;;;;5038761;28;21159;-70
2022/02/25 04:48:57;;;;;;;14.53;13.70;;;2.30;99.90;;;;;;5032593;28;20567;-70
2022/02/25 04:51:24;;;;;;;18.20;14.87;;;2.30;99.90;;;;;;5031861;28;20460;-69
2022/02/25 04:53:51;;;;;;;15.50;14.20;;;2.30;99.90;;;;;;5041254;28;20451;-70
2022/02/25 04:56:18;;;;;;;16.30;14.73;;;2.30;99.90;;;;;;5038085;28;20463;-70
2022/02/25 04:58:46;;;;;;;15.73;14.33;;;2.20;99.90;;;;;;5031274;28;20856;-70
2022/02/25 05:01:13;;;;;;;15.37;13.93;;;2.20;99.90;;;;;;5029316;28;20827;-70
2022/02/25 05:03:40;;;;;;;15.07;13.83;;;2.30;99.90;;;;;;5007360;28;20475;-70
2022/02/25 05:06:07;;;;;;;14.80;13.70;;;2.30;99.90;;;;;;5007488;28;20469;-70
2022/02/25 05:08:34;;;;;;;15.97;14.63;;;2.30;99.90;;;;;;5009991;28;20939;-70
2022/02/25 05:11:01;;;;;;;16.53;14.60;;;2.40;99.90;;;;;;5010325;28;21631;-70
2022/02/25 05:13:28;;;;;;;14.73;13.73;;;2.30;99.90;;;;;;5009004;28;20471;-70
2022/02/25 05:21:37;;;;;;;15.53;14.13;;;2.40;99.90;;;;;;4966041;28;20498;-70
2022/02/25 05:24:04;;;;;;;17.30;14.40;;;2.40;99.90;;;;;;4998933;28;20485;-69
2022/02/25 05:26:31;;;;;;;15.63;14.57;;;2.30;99.90;;;;;;5010828;28;20467;-70
2022/02/25 05:28:57;;;;;;;15.80;14.53;;;2.30;99.90;;;;;;5008239;28;20471;-70
2022/02/25 05:31:26;;;;;;;15.40;14.07;;;2.30;99.90;;;;;;5009570;28;20472;-70
2022/02/25 05:33:53;;;;;;;19.73;14.07;;;2.30;99.90;;;;;;5009757;28;20457;-70
2022/02/25 05:36:20;;;;;;;16.40;14.80;;;2.30;99.90;;;;;;5010264;28;20472;-70
2022/02/25 05:38:48;;;;;;;16.03;14.77;;;2.30;99.90;;;;;;5011068;28;20534;-70
2022/02/25 05:41:15;;;;;;;14.33;13.53;;;2.30;99.90;;;;;;5012277;28;20955;-70
2022/02/25 05:43:42;;;;;;;16.57;15.00;;;2.30;99.90;;;;;;5010994;28;20481;-70
2022/02/25 05:46:09;;;;;;;16.10;14.80;;;2.30;99.90;;;;;;5011841;28;20463;-70
2022/02/25 05:48:37;;;;;;;16.67;15.07;;;2.30;99.90;;;;;;5011229;28;21060;-70
2022/02/25 05:51:05;;;;;;;18.37;14.90;;;2.30;99.90;;;;;;5011774;28;20620;-70
2022/02/25 05:53:32;;;;;;;16.20;14.97;;;2.30;99.90;;;;;;5011415;28;21865;-70
2022/02/25 05:55:59;;;;;;;16.30;14.77;;;2.30;99.90;;;;;;5025404;28;20466;-70
2022/02/25 05:58:26;;;;;;;15.93;14.33;;;2.30;99.90;;;;;;5034435;28;20488;-70
2022/02/25 06:00:53;;;;;;;19.13;15.37;;;2.30;99.90;;;;;;5011226;28;20756;-71
2022/02/25 06:03:19;;;;;;;16.77;15.30;;;2.20;99.90;;;;;;5011793;28;20556;-71
2022/02/25 06:05:48;;;;;;;16.60;15.17;;;2.20;99.90;;;;;;5009196;28;20472;-71
2022/02/25 06:08:14;;;;;;;19.33;15.03;;;2.30;99.90;;;;;;5008720;28;20464;-71
2022/02/25 06:10:41;;;;;;;14.43;13.50;;;2.30;99.90;;;;;;5008964;28;21294;-71
2022/02/25 06:13:08;;;;;;;17.13;15.07;;;2.30;99.90;;;;;;5008542;28;20461;-71
2022/02/25 06:15:35;;;;;;;17.77;15.20;;;2.30;99.90;;;;;;5008469;28;20970;-70
2022/02/25 06:18:02;;;;;;;17.43;14.30;;;2.30;99.90;;;;;;5010024;28;21089;-70
2022/02/25 06:20:29;;;;;;;15.20;14.00;;;2.30;99.90;;;;;;5008596;28;20592;-70
2022/02/25 06:22:58;;;;;;;15.60;14.40;;;2.30;99.90;;;;;;5008596;28;21067;-70
2022/02/25 06:25:25;;;;;;;15.27;14.33;;;2.40;99.90;;;;;;5008457;28;20470;-70
2022/02/25 06:27:52;;;;;;;22.87;14.27;;;2.40;99.90;;;;;;5009629;28;21092;-70
2022/02/25 06:30:19;;;;;;;16.07;14.87;;;2.40;99.90;;;;;;5020823;28;20456;-70
2022/02/25 06:32:46;;;;;;;16.63;15.30;;;2.40;99.90;;;;;;5019490;28;20472;-69
2022/02/25 06:35:14;;;;;;;16.43;15.23;;;2.50;99.90;;;;;;5009117;28;21358;-70
2022/02/25 06:37:41;;;;;;;16.20;14.77;;;2.50;99.90;;;;;;5008590;28;20474;-70
2022/02/25 06:40:11;;;;;;;15.93;14.50;;;2.60;99.90;;;;;;5009110;28;20512;-70
2022/02/25 06:42:39;;;;;;;16.73;15.20;;;2.60;99.90;;;;;;5009545;28;21063;-70
2022/02/25 06:45:06;;;;;;;15.60;14.70;;;2.70;99.90;;;;;;5008840;28;21057;-70
2022/02/25 06:47:33;;;;;;;16.60;15.50;;;2.70;99.90;;;;;;5008306;28;20464;-70
2022/02/25 06:50:00;;;;;;;17.70;16.00;;;2.80;99.90;;;;;;5008440;28;20472;-70
2022/02/25 06:52:27;;;;;;;16.57;15.20;;;2.90;99.90;;;;;;5005479;28;21131;-70
2022/02/25 06:54:54;;;;;;;16.50;15.00;;;2.90;99.90;;;;;;5007264;28;20476;-70
2022/02/25 06:57:22;;;;;;;17.53;16.23;;;2.90;99.90;;;;;;5006665;28;20476;-70
2022/02/25 06:59:49;;;;;;;15.87;14.70;;;2.90;99.90;;;;;;5006888;28;20546;-69
2022/02/25 07:02:16;;;;;;;15.53;14.73;;;2.90;99.90;;;;;;5006146;28;21054;-70
2022/02/25 07:04:42;;;;;;;16.27;14.77;;;3.00;99.90;;;;;;5006753;28;20464;-70
2022/02/25 07:07:09;;;;;;;17.73;15.93;;;3.00;99.90;;;;;;5003582;28;20463;-70
2022/02/25 07:09:36;;;;;;;16.93;14.97;;;3.10;99.90;;;;;;5007750;28;20461;-69
2022/02/25 07:12:03;;;;;;;17.83;16.10;;;3.00;99.90;;;;;;5007020;28;20714;-70
2022/02/25 07:14:33;;;;;;;17.87;15.50;;;3.10;99.90;;;;;;5006661;28;20471;-70
2022/02/25 07:17:00;;;;;;;16.60;15.30;;;3.00;99.90;;;;;;5005945;28;20469;-69
2022/02/25 07:19:26;;;;;;;16.40;14.90;;;3.10;99.90;;;;;;5005960;28;20492;-70
2022/02/25 07:21:54;;;;;;;18.23;16.30;;;3.10;99.90;;;;;;5017367;28;20830;-70
2022/02/25 07:24:20;;;;;;;15.47;14.37;;;3.30;99.90;;;;;;5004733;28;20479;-70
2022/02/25 07:26:47;;;;;;;18.33;16.70;;;3.40;99.90;;;;;;5005938;28;20469;-69
2022/02/25 07:29:14;;;;;;;17.77;15.87;;;3.60;99.90;;;;;;5006159;28;20958;-70
2022/02/25 07:31:42;;;;;;;16.53;15.00;;;3.70;99.90;;;;;;5006788;28;20565;-70
2022/02/25 07:34:09;;;;;;;17.57;15.97;;;3.70;99.90;;;;;;5006241;28;20460;-70
2022/02/25 07:36:36;;;;;;;16.93;15.50;;;3.70;99.90;;;;;;5001655;28;20464;-70
2022/02/25 07:39:04;;;;;;;16.87;15.50;;;3.70;99.90;;;;;;5001497;28;20480;-71
2022/02/25 07:41:30;;;;;;;16.43;15.07;;;3.70;99.90;;;;;;5015716;28;20960;-69
2022/02/25 07:43:57;;;;;;;17.77;15.70;;;3.70;99.90;;;;;;5036902;28;20479;-70
2022/02/25 07:46:24;;;;;;;17.00;14.80;;;3.80;99.90;;;;;;5036932;28;20977;-70
2022/02/25 07:48:52;;;;;;;16.83;15.30;;;3.90;99.90;;;;;;5015125;28;21023;-70
2022/02/25 07:51:19;;;;;;;17.10;15.50;;;4.00;99.90;;;;;;5002046;28;20919;-70
2022/02/25 07:53:48;;;;;;;23.53;15.13;;;4.10;99.90;;;;;;5002969;28;20685;-70
2022/02/25 07:56:16;;;;;;;15.73;14.57;;;4.00;99.90;;;;;;5002013;28;20460;-70
2022/02/25 07:58:43;;;;;;;15.70;14.60;;;3.90;99.90;;;;;;5001514;28;20539;-70
2022/02/25 08:01:10;;;;;;;16.17;14.67;;;3.90;99.90;;;;;;5002343;28;20452;-71
2022/02/25 08:03:37;;;;;;;16.60;14.90;;;3.90;99.90;;;;;;5004242;28;20502;-70
2022/02/25 08:06:05;;;;;;;14.83;13.73;;;4.00;99.90;;;;;;5004368;28;20465;-70
2022/02/25 08:08:32;;;;;;;16.83;15.40;;;4.10;99.90;;;;;;5003416;28;20493;-70
2022/02/25 08:10:59;;;;;;;16.93;15.40;;;4.20;99.90;;;;;;5004582;28;20472;-70
2022/02/25 08:13:26;;;;;;;18.03;16.30;;;4.20;99.90;;;;;;5004995;28;20463;-70
2022/02/25 08:15:52;;;;;;;17.13;15.70;;;4.20;99.90;;;;;;5003978;28;20468;-71
2022/02/25 08:18:19;;;;;;;20.07;17.57;;;4.10;99.90;;;;;;5003947;28;20464;-69
2022/02/25 08:20:46;;;;;;;19.27;18.07;;;4.10;99.90;;;;;;5004311;28;20542;-70
2022/02/25 08:23:15;;;;;;;19.50;17.57;;;3.90;99.90;;;;;;5003235;28;20805;-69
2022/02/25 08:25:42;;;;;;;18.47;16.67;;;3.80;99.90;;;;;;5003731;28;20903;-69
2022/02/25 08:28:10;;;;;;;28.53;16.97;;;3.80;99.90;;;;;;5003876;28;20580;-69
2022/02/25 08:30:38;;;;;;;27.37;15.80;;;3.90;99.90;;;;;;5002429;28;20852;-70
2022/02/25 08:33:05;;;;;;;17.37;15.83;;;3.90;99.90;;;;;;5003429;28;20966;-70
2022/02/25 08:35:33;;;;;;;17.83;15.30;;;3.90;99.90;;;;;;5003623;28;20883;-70
2022/02/25 08:38:17;;;;;;;18.43;14.73;;;4.10;99.90;;;;;;5006581;28;20778;-70
2022/02/25 08:40:46;;;;;;;16.30;14.70;;;4.10;99.90;;;;;;5006201;28;20498;-70
2022/02/25 08:43:13;;;;;;;18.17;16.50;;;4.10;99.90;;;;;;5007284;28;20472;-70
2022/02/25 08:45:41;;;;;;;22.00;16.80;;;4.10;99.90;;;;;;5006514;28;20525;-70
2022/02/25 08:48:08;;;;;;;17.53;15.43;;;4.30;99.90;;;;;;5006290;28;21139;-70
2022/02/25 08:50:35;;;;;;;17.10;15.37;;;4.40;99.90;;;;;;5007224;28;20763;-70
2022/02/25 08:53:02;;;;;;;19.03;16.20;;;4.40;99.90;;;;;;5008639;28;20472;-70
2022/02/25 08:55:29;;;;;;;19.53;16.00;;;4.50;99.90;;;;;;5006346;28;20551;-70
2022/02/25 08:57:57;;;;;;;18.37;16.10;;;4.60;99.90;;;;;;5008414;28;20937;-70
2022/02/25 09:00:26;;;;;;;18.33;15.50;;;4.70;99.90;;;;;;5006697;28;20823;-70
2022/02/25 09:02:54;;;;;;;19.70;17.60;;;4.80;99.90;;;;;;5008045;28;20656;-70
2022/02/25 09:05:22;;;;;;;18.80;16.80;;;4.90;99.90;;;;;;5007477;28;20560;-70
2022/02/25 09:07:50;;;;;;;16.90;15.67;;;4.90;99.90;;;;;;5007837;28;20464;-70
2022/02/25 09:10:18;;;;;;;20.83;16.67;;;4.90;99.90;;;;;;5007469;28;20555;-70
2022/02/25 09:12:46;;;;;;;16.57;15.13;;;4.80;99.90;;;;;;5008080;28;20453;-70
2022/02/25 09:15:16;;;;;;;25.87;15.90;;;4.80;99.90;;;;;;5007926;28;20468;-70
2022/02/25 09:17:43;;;;;;;17.67;16.27;;;4.70;99.90;;;;;;5006983;28;20448;-71
2022/02/25 09:20:12;;;;;;;21.27;19.13;;;4.90;99.90;;;;;;5005423;28;20481;-69
2022/02/25 09:22:40;;;;;;;40.73;23.87;;;4.90;99.90;;;;;;5012204;28;20478;-71
2022/02/25 09:25:07;;;;;;;18.07;16.37;;;4.90;99.90;;;;;;5006953;28;20465;-70
2022/02/25 09:27:34;;;;;;;19.03;16.97;;;5.00;99.90;;;;;;5006941;28;20464;-70
2022/02/25 09:30:02;;;;;;;27.10;18.57;;;5.10;99.90;;;;;;5006298;28;20873;-70
2022/02/25 09:32:30;;;;;;;18.10;16.40;;;5.20;99.90;;;;;;5007253;28;20460;-70
2022/02/25 09:34:57;;;;;;;17.77;16.43;;;5.30;99.90;;;;;;5008270;28;20801;-70
2022/02/25 09:37:24;;;;;;;17.40;16.20;;;5.50;99.90;;;;;;5006910;28;20461;-70
2022/02/25 09:39:51;;;;;;;18.47;16.77;;;5.60;99.90;;;;;;5006343;28;20498;-70
2022/02/25 09:42:21;;;;;;;21.90;17.10;;;5.60;99.90;;;;;;5015647;28;20466;-69
2022/02/25 09:44:47;;;;;;;17.17;15.80;;;5.70;99.90;;;;;;5034462;28;20470;-70
2022/02/25 09:47:15;;;;;;;21.63;17.23;;;5.70;99.90;;;;;;5040259;28;20656;-70
2022/02/25 09:49:44;;;;;;;21.87;17.73;;;5.60;99.90;;;;;;5034417;28;20459;-70
2022/02/25 09:52:13;;;;;;;22.00;17.63;;;5.60;99.90;;;;;;5006007;28;21126;-71
2022/02/25 09:54:41;;;;;;;18.53;16.80;;;5.90;99.90;;;;;;5032015;28;20567;-70
2022/02/25 09:57:08;;;;;;;18.77;17.23;;;6.00;99.90;;;;;;5038287;28;20465;-70
2022/02/25 09:59:34;;;;;;;20.27;18.17;;;6.00;99.90;;;;;;5005299;28;20830;-70
2022/02/25 10:02:03;;;;;;;24.13;17.20;;;6.00;99.90;;;;;;5005995;28;20453;-70
2022/02/25 10:04:31;;;;;;;19.00;17.27;;;6.00;99.90;;;;;;5006262;28;20486;-70
2022/02/25 10:06:59;;;;;;;20.00;18.03;;;6.10;99.90;;;;;;5028160;28;20993;-70
2022/02/25 10:09:33;;;;;;;19.43;17.47;;;6.00;99.90;;;;;;5032985;28;20994;-70
2022/02/25 10:12:03;;;;;;;18.80;17.23;;;6.10;99.90;;;;;;5034305;28;20538;-70
2022/02/25 10:14:32;;;;;;;19.13;17.30;;;6.20;99.90;;;;;;5006245;28;20474;-71
2022/02/25 10:17:13;;;;;;;18.83;17.20;;;6.30;99.90;;;;;;5005692;28;20466;-71
2022/02/25 10:19:41;;;;;;;19.87;17.80;;;6.40;99.90;;;;;;5005316;28;20507;-71
2022/02/25 10:22:25;;;;;;;18.77;17.20;;;6.60;99.90;;;;;;5005456;28;20539;-70
2022/02/25 10:24:55;;;;;;;19.67;17.57;;;6.50;99.90;;;;;;5006448;28;20541;-70
2022/02/25 10:27:24;;;;;;;20.83;18.60;;;6.50;99.90;;;;;;5006102;28;20625;-70
2022/02/25 10:29:56;;;;;;;19.97;17.97;;;6.30;99.90;;;;;;5004226;28;20462;-71
2022/02/25 10:32:32;;;;;;;19.17;17.57;;;6.40;99.90;;;;;;5005600;28;20469;-70
2022/02/25 10:34:59;;;;;;;20.83;17.57;;;6.40;99.90;;;;;;5006346;28;20468;-71
2022/02/25 10:37:28;;;;;;;19.90;18.10;;;6.50;99.90;;;;;;5006760;28;20460;-71
2022/02/25 10:39:55;;;;;;;18.67;17.13;;;6.60;99.90;;;;;;5004637;28;20653;-70
2022/02/25 10:42:23;;;;;;;19.40;17.67;;;6.60;99.90;;;;;;5005358;28;20476;-70
2022/02/25 10:44:55;;;;;;;21.07;17.80;;;6.80;99.90;;;;;;5005649;28;20476;-72
2022/02/25 10:47:23;;;;;;;20.40;18.27;;;7.00;99.90;;;;;;5005936;28;20564;-70
2022/02/25 10:50:00;;;;;;;19.60;17.90;;;7.70;99.90;;;;;;5005635;28;20471;-71
2022/02/25 10:52:31;;;;;;;19.37;17.60;;;8.30;99.90;;;;;;5005277;28;21217;-71
2022/02/25 10:54:58;;;;;;;19.60;17.57;;;8.60;99.90;;;;;;5004543;28;20480;-71
2022/02/25 10:57:27;;;;;;;20.43;18.40;;;8.50;99.90;;;;;;5005919;28;20459;-71
2022/02/25 10:59:55;;;;;;;19.03;17.23;;;8.10;99.90;;;;;;5004550;28;20579;-71
2022/02/25 11:02:25;;;;;;;21.00;18.10;;;7.90;99.90;;;;;;5005597;28;20979;-71
2022/02/25 11:05:05;;;;;;;22.03;17.70;;;8.50;99.90;;;;;;5005553;28;20932;-72
2022/02/25 11:07:35;;;;;;;19.77;17.77;;;8.40;99.90;;;;;;5003651;28;20468;-71
2022/02/25 11:10:04;;;;;;;20.70;18.50;;;8.30;99.90;;;;;;5007927;28;20472;-70
2022/02/25 11:12:30;;;;;;;20.73;18.67;;;8.20;99.90;;;;;;5002887;28;20974;-70
2022/02/25 11:14:58;;;;;;;19.07;17.47;;;8.00;99.90;;;;;;5037316;28;20853;-70
2022/02/25 11:17:25;;;;;;;21.50;17.50;;;7.80;99.90;;;;;;5024959;28;20472;-70
2022/02/25 11:19:58;;;;;;;19.93;18.10;;;7.60;99.90;;;;;;5006246;28;20503;-71
2022/02/25 11:22:28;;;;;;;23.40;18.77;;;7.60;99.90;;;;;;5008116;28;20488;-72
2022/02/25 11:24:58;;;;;;;20.43;18.33;;;7.60;99.90;;;;;;5009091;28;20474;-72
2022/02/25 11:27:25;;;;;;;24.27;17.40;;;7.70;99.90;;;;;;5009111;28;20482;-71
2022/02/25 11:30:00;;;;;;;19.63;17.80;;;7.60;99.90;;;;;;5006191;28;20479;-70
2022/02/25 11:32:34;;;;;;;24.37;19.33;;;7.30;99.90;;;;;;5005918;28;21031;-71
2022/02/25 11:35:11;;;;;;;24.60;18.97;;;7.20;99.90;;;;;;5008120;28;20478;-73
2022/02/25 11:37:42;;;;;;;20.80;18.93;;;7.20;99.90;;;;;;5005092;28;20500;-73
2022/02/25 11:40:12;;;;;;;20.50;18.60;;;7.30;99.90;;;;;;5005166;28;20500;-70
2022/02/25 11:42:39;;;;;;;20.13;18.13;;;7.30;99.90;;;;;;5004811;28;20470;-72
2022/02/25 11:45:22;;;;;;;19.77;17.77;;;7.40;99.90;;;;;;5004442;28;21576;-73
2022/02/25 11:47:56;;;;;;;20.30;18.30;;;7.50;99.90;;;;;;5004790;28;20521;-70
2022/02/25 11:50:37;;;;;;;19.80;17.83;;;7.70;99.90;;;;;;5005558;28;20455;-71
2022/02/25 11:53:20;;;;;;;20.70;18.57;;;7.80;99.90;;;;;;5006505;28;20479;-70
2022/02/25 11:55:49;;;;;;;20.70;18.60;;;7.70;99.90;;;;;;5006429;28;20598;-71
2022/02/25 11:58:48;;;;;;;21.33;18.77;;;7.80;99.90;;;;;;5006569;28;21267;-73
2022/02/25 12:01:17;;;;;;;20.27;18.30;;;8.00;99.90;;;;;;5031375;28;20483;-71
2022/02/25 12:04:07;;;;;;;20.03;18.00;;;8.30;99.90;;;;;;5037642;28;20463;-72
2022/02/25 12:07:01;;;;;;;24.27;21.37;;;8.00;99.90;;;;;;5037278;28;20632;-72
2022/02/25 12:09:46;;;;;;;23.73;21.30;;;7.70;99.90;;;;;;5007247;28;20463;-71
2022/02/25 12:12:36;;;;;;;24.00;21.90;;;7.60;99.90;;;;;;5004779;28;20507;-71
2022/02/25 12:15:10;;;;;;;26.83;21.43;;;7.20;99.90;;;;;;5005438;28;20457;-70
2022/02/25 12:17:46;;;;;;;22.50;20.40;;;7.20;99.90;;;;;;5005699;28;20465;-70
2022/02/25 12:20:18;;;;;;;25.57;23.00;;;6.80;99.90;;;;;;5004200;28;20492;-69
2022/02/25 12:22:50;;;;;;;43.80;36.87;;;6.60;99.90;;;;;;5004062;28;20527;-70
2022/02/25 12:25:46;;;;;;;41.57;37.13;;;6.40;99.90;;;;;;5005414;28;20862;-71
2022/02/25 12:28:49;;;;;;;43.30;37.40;;;6.00;99.90;;;;;;5003050;28;20476;-70
2022/02/25 12:31:19;;;;;;;56.00;37.17;;;5.40;99.90;;;;;;5001158;28;20515;-70
2022/02/25 12:34:02;;;;;;;42.73;37.20;;;4.90;99.90;;;;;;5004365;28;20843;-70
2022/02/25 12:36:43;;;;;;;39.77;35.43;;;4.50;99.90;;;;;;5004977;28;20803;-70
2022/02/25 12:39:19;;;;;;;45.20;34.40;;;4.30;99.90;;;;;;5004106;28;20460;-70
2022/02/25 12:41:47;;;;;;;49.77;34.00;;;4.40;99.90;;;;;;5005055;28;21135;-70
2022/02/25 12:44:18;;;;;;;48.57;36.13;;;4.70;99.90;;;;;;5004733;28;20462;-70
2022/02/25 12:46:47;;;;;;;42.47;32.20;;;4.80;99.90;;;;;;5005807;28;20467;-71
2022/02/25 12:49:17;;;;;;;50.20;32.40;;;5.00;99.90;;;;;;5005004;28;20534;-70